x

Sentry Shoal (46131) Weather Station

6:00 - Sat 20th Sep 2014 All times are PDT. -7 hours from GMT.

  • Peak Period 2s
  • Wind
    4mph
  • Sea Temp 63°f
  • Aire Temp 63°f
  • Sea Pressure 1014.6mb
  • Sentry Shoal
  • Sentry Shoal

More Historic Weather Station data

Upgrade to MSW Pro to gain access to the past 30 days of data for over 8000 Wavebouys and Weather Stations around the globe.

Join Pro

Comparision Forecast

View Surf forecast
   
sáb 09/20 6:00  -  2s 4
mph
1014.6mb 63f 63f
5:00  -  3s 4
mph
1015.7mb 64f 64f
4:00  -  2s 2
mph
1016.7mb 64f 64f
3:00 0.3ft 3s 2
mph
1017.6mb 62f 62f
2:00 0.3ft 2s 4
mph
1018.7mb 62f 61f
1:00  -  3s 4
mph
1019.8mb 62f 60f
12:00 0.3ft 4s 2
mph
1020.7mb 61f 60f
11:00 0.3ft 2s 4
mph
1021.3mb 61f 57f
10:00 0.3ft 2s 4 7 mph 1021.7mb 61f 57f
9:00 0.3ft 2s 7 9 mph 1021.8mb 61f 56f
8:00 0.3ft 2s 7 9 mph 1021.6mb 60f 57f
7:00  -  2s 7
mph
1021.6mb 60f 56f
6:00  -  2s 4 7 mph 1021.7mb 60f 57f
5:00 0.3ft 2s 4 7 mph 1021.6mb 60f 58f
4:00 0.3ft 6s 7
mph
1021.4mb 60f 57f
3:00 0.3ft 6s 4 7 mph 1021.6mb 60f 58f
2:00 0.3ft 2s 7
mph
1021.6mb 60f 58f
1:00 0.3ft 3s 9
mph
1021.5mb 60f 58f
12:00 0.3ft 3s 4
mph
1021.4mb 61f 58f
vie 09/19 11:00 0.3ft 3s 2 4 mph 1021.4mb 60f 60f
10:00 0.3ft 3s 4
mph
1021.1mb 60f 60f
9:00 0.3ft 3s 4
mph
1020.4mb 60f 59f
8:00 0.7ft 3s 7 9 mph 1019.7mb 60f 61f
7:00 0.3ft 3s 7 9 mph 1019.7mb 60f 61f
6:00 0.7ft 4s 7 9 mph 1019.4mb 60f 60f
5:00 0.7ft 4s 7 9 mph 1019.5mb 60f 60f
4:00 0.7ft 3s 7 9 mph 1019.5mb 60f 60f
3:00 0.7ft 2s 9 11 mph 1019.3mb 60f 60f
2:00 0.7ft 3s 7 9 mph 1019.3mb 60f 61f
1:00 1ft 4s 9 11 mph 1019.1mb 60f 60f
12:00 1ft 3s 11 13 mph 1018.7mb 60f 60f
11:00 1ft 3s 11 13 mph 1018.2mb 60f 61f
10:00 1.3ft 3s 11 13 mph 1017.5mb 60f 60f
9:00 1.3ft 4s 9 11 mph 1016.6mb 60f 60f
8:00 1.3ft 3s 9 11 mph 1015.7mb 60f 60f
7:00 1.6ft 4s 13 16 mph 1014.8mb 60f 60f
6:00 2ft 4s 11 16 mph 1014.2mb 60f 61f
5:00 2ft 4s 16 20 mph 1013.6mb 60f 61f
4:00 2ft 3s 16 20 mph 1013.2mb 60f 62f
3:00 1.6ft 4s 16 20 mph 1012.6mb 60f 61f
2:00 1.6ft 4s 16 18 mph 1012.4mb 60f 61f
1:00 2ft 4s 16 18 mph 1011.9mb 61f 61f
12:00 2ft 4s 16 20 mph 1011.7mb 60f 61f
jue 09/18 11:00 2ft 4s 18 20 mph 1011.5mb 60f 61f
10:00 2ft 4s 16 18 mph 1011.1mb 61f 61f
9:00 2ft 4s 13 16 mph 1010.9mb 61f 62f
8:00 2ft 4s 16 18 mph 1009.9mb 61f 62f
7:00 2ft 4s 13 18 mph 1009.3mb 62f 62f
6:00 1.3ft 3s 16 18 mph 1008.9mb 62f 62f
5:00 1ft 2s 11 13 mph 1009.2mb 62f 62f
4:00 0.7ft 2s 11
mph
1009mb 62f 62f
3:00 0.3ft 2s 11 13 mph 1008.8mb 62f 62f
2:00 0.3ft 2s 9 11 mph 1008.4mb 62f 62f
1:00 0.3ft 2s 9 11 mph 1008.6mb 62f 61f
12:00 0.3ft 3s 9 11 mph 1008.2mb 62f 61f
11:00 0.3ft 4s 7 9 mph 1008.1mb 62f 61f
10:00  -  3s 2
mph
1007.8mb 62f 60f
9:00  -  3s 2
mph
1007.2mb 62f 60f
8:00  -  3s  -  2 mph 1006.9mb 62f 60f
7:00  -  3s 4
mph
1006.2mb 62f 61f
6:00  -  7s 4 7 mph 1006.3mb 62f 60f
5:00  -  2s 4 7 mph 1006.2mb 62f 61f
4:00  -  2s 2 4 mph 1006.2mb 62f 61f
3:00  -  2s 2 4 mph 1006.1mb 62f 61f
2:00  -  2s 2 4 mph 1006.3mb 62f 61f
1:00  -  2s 2 4 mph 1006.2mb 62f 61f
12:00 0.3ft 3s 4 7 mph 1006.6mb 62f 60f
mié 09/17 11:00 0.3ft 2s 2
mph
1006.6mb 62f 61f
10:00 0.3ft 5s 2 4 mph 1006.9mb 62f 61f
9:00 0.7ft 6s 2 4 mph 1006.8mb 62f 62f
8:00 0.7ft 3s 7 9 mph 1006.6mb 61f 62f
7:00 0.3ft 3s 4
mph
1006.6mb 61f 61f
6:00 0.3ft 3s 4 7 mph 1007mb 61f 61f
5:00 0.7ft 2s 2
mph
1007.3mb 61f 62f
4:00 0.7ft 2s 11 13 mph 1007.5mb 61f 62f
3:00 0.3ft 3s 9 11 mph 1007.4mb 62f 62f
2:00 0.3ft 2s 7
mph
1007.8mb 62f 62f
1:00 0.3ft 2s 7
mph
1008mb 62f 62f
12:00 0.3ft 2s 7 9 mph 1008.2mb 62f 62f
11:00 0.7ft 2s 2
mph
1008.4mb 61f 62f
10:00 0.7ft 2s 4 7 mph 1008.5mb 61f 61f
9:00 0.7ft 2s 7 9 mph 1008.6mb 61f 62f
8:00 0.7ft 3s 2 4 mph 1008.7mb 61f 60f
7:00 0.7ft 3s 2 4 mph 1008.6mb 61f 60f
6:00 1ft 4s 2
mph
1008.6mb 61f 60f
5:00 1.3ft 4s 4 7 mph 1008.8mb 61f 60f
4:00 1.6ft 4s 9 11 mph 1008.8mb 61f 62f
3:00 2ft 4s 16 18 mph 1009.1mb 61f 64f